createdAt,value
2023-09-11T00:01:28.943Z,95601.80
2023-09-11T00:04:18.101Z,95604.73
2023-09-11T00:07:31.590Z,95606.17
2023-09-11T00:11:01.103Z,95607.45
2023-09-11T00:14:29.409Z,95606.85
2023-09-11T00:18:19.075Z,95607.59
2023-09-11T00:21:51.651Z,95601.44
2023-09-11T00:25:14.363Z,95600.26
2023-09-11T00:28:38.647Z,95603.21
2023-09-11T00:32:27.285Z,95597.95
2023-09-11T00:35:51.108Z,95595.48
2023-09-11T00:39:04.397Z,95592.89
2023-09-11T00:41:46.153Z,95595.43
2023-09-11T00:44:43.167Z,95593.14
2023-09-11T00:47:15.022Z,95590.33
2023-09-11T00:50:13.221Z,95590.08
2023-09-11T00:52:45.394Z,95594.96
2023-09-11T00:55:34.539Z,95596.45
2023-09-11T00:58:30.582Z,95593.42
2023-09-11T01:01:22.042Z,95595.30
2023-09-11T01:04:05.115Z,95586.08
2023-09-11T01:06:44.197Z,95589.70
2023-09-11T01:09:42.149Z,95590.41
2023-09-11T01:12:34.200Z,95589.59
2023-09-11T01:15:29.054Z,95584.15
2023-09-11T01:18:57.024Z,95586.34
2023-09-11T01:22:11.397Z,95584.83
2023-09-11T01:25:24.641Z,95590.23
2023-09-11T01:29:01.642Z,95587.16
2023-09-11T01:32:34.548Z,95590.20
2023-09-11T01:35:13.768Z,95591.16
2023-09-11T01:38:57.030Z,95591.05
2023-09-11T01:42:26.560Z,95589.91
2023-09-11T01:45:37.290Z,95590.12
2023-09-11T01:49:04.699Z,95589.14
2023-09-11T01:52:14.113Z,95587.09
2023-09-11T01:55:26.182Z,95582.11
2023-09-11T01:59:06.651Z,95582.50
2023-09-11T02:02:56.597Z,95583.56
2023-09-11T02:06:45.297Z,95577.33
2023-09-11T02:10:20.507Z,95579.90
2023-09-11T02:13:43.199Z,95577.38
2023-09-11T02:17:14.141Z,95583.64
2023-09-11T02:20:49.123Z,95583.64
2023-09-11T02:24:21.604Z,95583.52
2023-09-11T02:27:51.117Z,95581.32
2023-09-11T02:30:55.303Z,95586.30
2023-09-11T02:34:20.540Z,95582.41
2023-09-11T02:37:29.215Z,95581.74
2023-09-11T02:41:18.890Z,95578.80
2023-09-11T02:44:49.153Z,95571.68
2023-09-11T02:48:28.957Z,95572.65
2023-09-11T02:51:41.476Z,95572.91
2023-09-11T02:54:50.777Z,95570.75
2023-09-11T02:58:20.283Z,95565.70
2023-09-11T03:01:34.357Z,95562.63
2023-09-11T03:04:19.152Z,95563.30
2023-09-11T03:07:27.676Z,95564.31
2023-09-11T03:10:09.157Z,95563.34
2023-09-11T03:13:20.995Z,95560.69
2023-09-11T03:16:38.888Z,95557.79
2023-09-11T03:19:25.037Z,95554.98
2023-09-11T03:22:23.931Z,95554.70
2023-09-11T03:25:47.342Z,95553.94
2023-09-11T03:29:37.137Z,95552.84
2023-09-11T03:33:05.325Z,95552.46
2023-09-11T03:36:21.357Z,95551.70
2023-09-11T03:39:10.435Z,95554.19
2023-09-11T03:41:49.042Z,95551.70
2023-09-11T03:45:03.703Z,95552.41
2023-09-11T03:47:55.678Z,95553.64
2023-09-11T03:51:14.795Z,95556.21
2023-09-11T03:55:04.419Z,95554.27
2023-09-11T03:58:54.008Z,95552.55
2023-09-11T04:02:06.155Z,95553.80
2023-09-11T04:05:49.036Z,95559.06
2023-09-11T04:08:59.797Z,95555.16
2023-09-11T04:12:21.733Z,95556.27
2023-09-11T04:15:44.030Z,95555.10
2023-09-11T04:18:41.640Z,95553.98
2023-09-11T04:21:51.082Z,95556.38
2023-09-11T04:24:43.416Z,95555.33
2023-09-11T04:27:25.064Z,95557.60
2023-09-11T04:30:22.210Z,95552.67
2023-09-11T04:33:06.409Z,95553.69
2023-09-11T04:36:29.162Z,95551.83
2023-09-11T04:39:43.671Z,95549.11
2023-09-11T04:42:52.548Z,95545.12
2023-09-11T04:45:36.222Z,95540.11
2023-09-11T04:48:51.555Z,95538.92
2023-09-11T04:51:47.265Z,95536.01
2023-09-11T04:54:22.055Z,95535.68
2023-09-11T04:57:18.745Z,95535.97
2023-09-11T05:00:01.418Z,95534.53
2023-09-11T05:02:37.189Z,95534.91
2023-09-11T05:05:25.335Z,95527.83
2023-09-11T05:08:07.979Z,95533.84
2023-09-11T05:11:13.157Z,95534.34
2023-09-11T05:14:23.383Z,95528.70
2023-09-11T05:18:03.501Z,95526.80
2023-09-11T05:21:38.036Z,95530.96
2023-09-11T05:24:54.717Z,95535.60
2023-09-11T05:28:24.117Z,95527.80
2023-09-11T05:31:08.677Z,95527.19
2023-09-11T05:34:37.002Z,95522.67
2023-09-11T05:38:25.280Z,95524.86
2023-09-11T05:41:14.480Z,95526.23
2023-09-11T05:44:26.184Z,95523.48
2023-09-11T05:47:38.540Z,95519.02
2023-09-11T05:50:38.682Z,95516.48
2023-09-11T05:54:01.199Z,95514.45
2023-09-11T05:57:50.924Z,95515.73
2023-09-11T06:01:28.267Z,95515.81
2023-09-11T06:05:01.056Z,95523.14
2023-09-11T06:08:50.493Z,95525.94
2023-09-11T06:12:13.084Z,95527.91
2023-09-11T06:15:50.548Z,95526.40
2023-09-11T06:19:40.234Z,95525.19
2023-09-11T06:23:21.246Z,95525.58
2023-09-11T06:26:05.986Z,95527.35
2023-09-11T06:29:11.471Z,95527.08
2023-09-11T06:32:21.005Z,95524.77
2023-09-11T06:35:32.976Z,95527.38
2023-09-11T06:39:22.456Z,95528.63
2023-09-11T06:42:15.016Z,95530.73
2023-09-11T06:45:34.427Z,95530.19
2023-09-11T06:48:37.018Z,95526.82
2023-09-11T06:51:12.532Z,95523.30
2023-09-11T06:53:55.808Z,95524.49
2023-09-11T06:57:07.676Z,95524.23
2023-09-11T07:00:17.393Z,95523.94
2023-09-11T07:04:07.232Z,95526.77
2023-09-11T07:07:29.672Z,95529.10
2023-09-11T07:10:34.097Z,95520.12
2023-09-11T07:13:43.632Z,95525.58
2023-09-11T07:16:15.299Z,95524.87
2023-09-11T07:18:52.344Z,95530.83
2023-09-11T07:21:53.204Z,95529.95
2023-09-11T07:25:23.648Z,95527.65
2023-09-11T07:28:26.169Z,95532.44
2023-09-11T07:31:55.552Z,95531.15
2023-09-11T07:34:45.624Z,95527.05
2023-09-11T07:37:17.778Z,95524.69
2023-09-11T07:40:11.752Z,95521.38
2023-09-11T07:43:49.988Z,95521.02
2023-09-11T07:47:23.204Z,95515.40
2023-09-11T07:50:34.532Z,95518.15
2023-09-11T07:53:07.144Z,95517.80
2023-09-11T07:56:23.019Z,95513.35
2023-09-11T07:59:38.877Z,95513.61
2023-09-11T08:03:09.937Z,95513.19
2023-09-11T08:06:16.985Z,95511.31
2023-09-11T08:09:19.197Z,95510.94
2023-09-11T08:13:08.587Z,95510.77
2023-09-11T08:16:48.154Z,95516.38
2023-09-11T08:20:08.229Z,95509.98
2023-09-11T08:22:36.854Z,95515.89
2023-09-11T08:25:15.112Z,95513.70
2023-09-11T08:28:07.104Z,95514.27
2023-09-11T08:30:41.023Z,95515.91
2023-09-11T08:33:23.086Z,95514.00
2023-09-11T08:36:01.440Z,95510.38
2023-09-11T08:38:50.769Z,95510.59
2023-09-11T08:42:16.828Z,95509.81
2023-09-11T08:44:48.959Z,95505.34
2023-09-11T08:47:43.202Z,95508.81
2023-09-11T08:50:12.665Z,95506.84
2023-09-11T08:52:48.157Z,95508.06
2023-09-11T08:56:00.207Z,95504.12
2023-09-11T08:59:03.914Z,95498.84
2023-09-11T09:01:59.242Z,95503.89
2023-09-11T09:04:39.213Z,95500.61
2023-09-11T09:07:14.260Z,95498.13
2023-09-11T09:10:46.178Z,95498.37
2023-09-11T09:13:57.721Z,95501.61
2023-09-11T09:16:39.019Z,95499.92
2023-09-11T09:19:40.518Z,95502.08
2023-09-11T09:22:53.492Z,95502.92
2023-09-11T09:25:29.841Z,95497.76
2023-09-11T09:28:38.206Z,95494.16
2023-09-11T09:31:27.652Z,95490.28
2023-09-11T09:34:00.272Z,95483.63
2023-09-11T09:37:09.493Z,95482.08
2023-09-11T09:39:45.809Z,95483.71
2023-09-11T09:42:34.602Z,95477.77
2023-09-11T09:46:06.485Z,95479.16
2023-09-11T09:48:35.958Z,95478.42
2023-09-11T09:51:10.576Z,95478.60
2023-09-11T09:54:06.294Z,95472.21
2023-09-11T09:56:57.049Z,95467.04
2023-09-11T09:59:28.120Z,95464.23
2023-09-11T10:01:57.156Z,95462.10
2023-09-11T10:04:37.093Z,95455.95
2023-09-11T10:07:13.211Z,95451.80
2023-09-11T10:09:42.361Z,95450.34
2023-09-11T10:12:16.693Z,95450.73
2023-09-11T10:15:08.485Z,95448.02
2023-09-11T10:17:38.769Z,95446.03
2023-09-11T10:20:17.598Z,95442.88
2023-09-11T10:23:13.621Z,95438.33
2023-09-11T10:25:53.000Z,95438.44
2023-09-11T10:28:30.389Z,95439.52
2023-09-11T10:31:51.610Z,95436.41
2023-09-11T10:34:37.551Z,95432.36
2023-09-11T10:37:24.410Z,95426.91
2023-09-11T10:39:55.820Z,95425.39
2023-09-11T10:42:24.659Z,95421.42
2023-09-11T10:44:54.226Z,95415.83
2023-09-11T10:47:24.332Z,95411.06
2023-09-11T10:49:57.668Z,95414.38
2023-09-11T10:52:49.143Z,95412.34
2023-09-11T10:55:19.307Z,95419.06
2023-09-11T10:58:00.177Z,95415.52
2023-09-11T11:00:40.174Z,95412.83
2023-09-11T11:03:09.069Z,95410.85
2023-09-11T11:05:38.808Z,95408.04
2023-09-11T11:08:09.661Z,95401.45
2023-09-11T11:10:53.188Z,95399.33
2023-09-11T11:13:27.559Z,95393.70
2023-09-11T11:16:20.639Z,95400.95
2023-09-11T11:18:53.491Z,95395.27
2023-09-11T11:21:22.505Z,95398.20
2023-09-11T11:24:01.623Z,95391.77
2023-09-11T11:26:39.152Z,95392.58
2023-09-11T11:29:08.307Z,95390.47
2023-09-11T11:31:38.455Z,95388.92
2023-09-11T11:34:08.136Z,95383.98
2023-09-11T11:36:40.144Z,95385.38
2023-09-11T11:39:09.393Z,95383.20
2023-09-11T11:41:38.780Z,95380.10
2023-09-11T11:44:08.028Z,95374.55
2023-09-11T11:46:36.878Z,95376.05
2023-09-11T11:49:05.678Z,95372.73
2023-09-11T11:51:34.408Z,95379.48
2023-09-11T11:54:23.476Z,95376.27
2023-09-11T11:56:56.970Z,95366.59
2023-09-11T11:59:52.962Z,95364.39
2023-09-11T12:02:28.651Z,95359.56
2023-09-11T12:04:57.400Z,95355.80
2023-09-11T12:07:45.326Z,95359.08
2023-09-11T12:10:45.545Z,95360.28
2023-09-11T12:13:42.975Z,95359.52
2023-09-11T12:16:31.320Z,95361.38
2023-09-11T12:19:05.935Z,95361.29
2023-09-11T12:21:49.857Z,95356.20
2023-09-11T12:24:20.805Z,95349.48
2023-09-11T12:26:49.499Z,95346.15
2023-09-11T12:29:24.433Z,95350.31
2023-09-11T12:31:53.250Z,95344.91
2023-09-11T12:34:21.781Z,95345.38
2023-09-11T12:36:50.465Z,95346.20
2023-09-11T12:39:19.516Z,95344.91
2023-09-11T12:41:48.570Z,95343.19
2023-09-11T12:44:37.554Z,95340.66
2023-09-11T12:47:06.974Z,95339.53
2023-09-11T12:49:35.873Z,95338.89
2023-09-11T12:52:08.088Z,95333.26
2023-09-11T12:54:37.068Z,95330.66
2023-09-11T12:57:08.728Z,95331.75
2023-09-11T12:59:40.460Z,95330.88
2023-09-11T13:02:12.488Z,95328.27
2023-09-11T13:04:44.719Z,95329.27
2023-09-11T13:07:13.581Z,95325.38
2023-09-11T13:09:42.842Z,95322.20
2023-09-11T13:12:17.230Z,95325.37
2023-09-11T13:15:07.345Z,95323.70
2023-09-11T13:17:37.869Z,95322.73
2023-09-11T13:20:07.326Z,95317.46
2023-09-11T13:22:36.176Z,95316.87
2023-09-11T13:25:05.840Z,95316.95
2023-09-11T13:27:41.073Z,95314.45
2023-09-11T13:30:10.406Z,95315.04
2023-09-11T13:32:39.478Z,95311.55
2023-09-11T13:35:08.970Z,95308.95
2023-09-11T13:37:37.819Z,95303.91
2023-09-11T13:40:17.650Z,95298.65
2023-09-11T13:42:46.332Z,95302.58
2023-09-11T13:45:21.494Z,95290.09
2023-09-11T13:47:51.426Z,95298.15
2023-09-11T13:50:20.328Z,95295.36
2023-09-11T13:52:48.949Z,95295.11
2023-09-11T13:55:17.911Z,95294.08
2023-09-11T13:57:46.537Z,95290.02
2023-09-11T14:00:15.723Z,95289.26
2023-09-11T14:02:47.767Z,95288.31
2023-09-11T14:05:16.529Z,95285.96
2023-09-11T14:07:45.421Z,95284.08
2023-09-11T14:10:14.263Z,95282.91
2023-09-11T14:12:42.873Z,95285.23
2023-09-11T14:15:13.941Z,95284.04
2023-09-11T14:17:51.093Z,95280.50
2023-09-11T14:20:28.729Z,95280.80
2023-09-11T14:23:17.872Z,95284.77
2023-09-11T14:26:22.919Z,95289.92
2023-09-11T14:29:02.732Z,95285.83
2023-09-11T14:32:15.862Z,95281.42
2023-09-11T14:35:22.011Z,95282.88
2023-09-11T14:37:50.884Z,95282.14
2023-09-11T14:40:19.623Z,95278.02
2023-09-11T14:43:11.452Z,95282.50
2023-09-11T14:45:40.207Z,95271.24
2023-09-11T14:48:11.363Z,95272.49
2023-09-11T14:50:40.372Z,95277.87
2023-09-11T14:53:09.109Z,95273.12
2023-09-11T14:55:37.839Z,95277.41
2023-09-11T14:58:27.723Z,95276.35
2023-09-11T15:01:10.305Z,95273.58
2023-09-11T15:03:51.653Z,95277.70
2023-09-11T15:06:28.389Z,95272.52
2023-09-11T15:09:02.519Z,95271.27
2023-09-11T15:11:56.985Z,95273.46
2023-09-11T15:14:35.156Z,95273.17
2023-09-11T15:17:04.466Z,95272.39
2023-09-11T15:19:33.279Z,95276.39
2023-09-11T15:22:02.242Z,95275.88
2023-09-11T15:24:31.072Z,95276.27
2023-09-11T15:27:02.124Z,95275.28
2023-09-11T15:29:31.458Z,95273.84
2023-09-11T15:32:12.742Z,95272.08
2023-09-11T15:34:43.762Z,95272.60
2023-09-11T15:37:37.331Z,95271.17
2023-09-11T15:40:10.179Z,95272.42
2023-09-11T15:42:39.069Z,95270.97
2023-09-11T15:45:16.195Z,95269.79
2023-09-11T15:48:02.387Z,95268.33
2023-09-11T15:50:33.791Z,95268.73
2023-09-11T15:53:41.701Z,95269.73
2023-09-11T15:56:25.490Z,95268.73
2023-09-11T16:00:01.195Z,95273.50
2023-09-11T16:03:03.850Z,95267.60
2023-09-11T16:05:46.806Z,95268.05
2023-09-11T16:08:38.949Z,95270.14
2023-09-11T16:11:43.918Z,95268.96
2023-09-11T16:14:49.014Z,95267.45
2023-09-11T16:17:52.495Z,95266.19
2023-09-11T16:21:41.492Z,95270.88
2023-09-11T16:24:38.466Z,95270.97
2023-09-11T16:28:00.656Z,95272.86
2023-09-11T16:31:33.228Z,95274.23
2023-09-11T16:34:45.745Z,95281.10
2023-09-11T16:38:18.031Z,95281.20
2023-09-11T16:41:30.486Z,95282.52
2023-09-11T16:44:53.318Z,95285.93
2023-09-11T16:48:25.991Z,95282.55
2023-09-11T16:51:41.082Z,95281.96
2023-09-11T16:54:53.166Z,95284.41
2023-09-11T16:58:43.001Z,95284.91
2023-09-11T17:01:52.371Z,95291.70
2023-09-11T17:05:01.855Z,95295.19
2023-09-11T17:08:41.314Z,95301.13
2023-09-11T17:12:03.468Z,95304.13
2023-09-11T17:15:32.906Z,95302.45
2023-09-11T17:19:22.334Z,95311.49
2023-09-11T17:23:01.819Z,95313.18
2023-09-11T17:26:30.926Z,95317.09
2023-09-11T17:29:10.017Z,95323.56
2023-09-11T17:31:56.101Z,95325.38
2023-09-11T17:35:25.404Z,95327.44
2023-09-11T17:38:54.675Z,95330.91
2023-09-11T17:41:56.635Z,95332.35
2023-09-11T17:44:41.285Z,95337.54
2023-09-11T17:47:35.690Z,95336.70
2023-09-11T17:50:29.847Z,95338.35
2023-09-11T17:53:29.066Z,95335.84
2023-09-11T17:56:35.732Z,95342.06
2023-09-11T17:59:48.019Z,95345.98
2023-09-11T18:03:08.774Z,95342.49
2023-09-11T18:06:21.363Z,95344.30
2023-09-11T18:10:10.894Z,95345.80
2023-09-11T18:12:43.048Z,95347.02
2023-09-11T18:16:11.743Z,95342.60
2023-09-11T18:19:00.884Z,95339.27
2023-09-11T18:21:33.311Z,95340.88
2023-09-11T18:24:05.443Z,95336.17
2023-09-11T18:26:38.074Z,95338.79
2023-09-11T18:29:18.272Z,95342.70
2023-09-11T18:32:12.759Z,95342.23
2023-09-11T18:34:59.227Z,95343.94
2023-09-11T18:38:25.096Z,95346.28
2023-09-11T18:41:34.835Z,95340.00
2023-09-11T18:44:03.725Z,95342.16
2023-09-11T18:47:36.003Z,95339.41
2023-09-11T18:50:58.864Z,95336.71
2023-09-11T18:54:28.492Z,95339.52
2023-09-11T18:58:03.459Z,95342.59
2023-09-11T19:01:47.469Z,95341.80
2023-09-11T19:05:37.965Z,95341.05
2023-09-11T19:09:07.357Z,95345.27
2023-09-11T19:12:36.879Z,95344.63
2023-09-11T19:16:26.677Z,95345.63
2023-09-11T19:19:53.589Z,95351.77
2023-09-11T19:23:34.710Z,95347.19
2023-09-11T19:27:04.490Z,95351.65
2023-09-11T19:30:54.514Z,95347.31
2023-09-11T19:34:15.158Z,95350.02
2023-09-11T19:37:58.345Z,95348.14
2023-09-11T19:41:23.277Z,95351.84
2023-09-11T19:44:14.714Z,95348.73
2023-09-11T19:48:04.577Z,95345.17
2023-09-11T19:51:30.203Z,95346.48
2023-09-11T19:54:58.610Z,95344.66
2023-09-11T19:58:28.060Z,95340.14
2023-09-11T20:02:17.803Z,95343.60
2023-09-11T20:06:08.215Z,95338.95
2023-09-11T20:09:58.028Z,95340.09
2023-09-11T20:13:47.561Z,95346.86
2023-09-11T20:17:35.696Z,95344.32
2023-09-11T20:21:25.553Z,95341.64
2023-09-11T20:25:15.025Z,95349.44
2023-09-11T20:28:45.413Z,95344.95
2023-09-11T20:32:24.642Z,95342.40
2023-09-11T20:36:14.511Z,95344.19
2023-09-11T20:40:06.979Z,95346.25
2023-09-11T20:43:04.193Z,95343.25
2023-09-11T20:46:53.818Z,95344.86
2023-09-11T20:50:43.649Z,95345.83
2023-09-11T20:53:35.438Z,95349.02
2023-09-11T20:57:24.686Z,95351.69
2023-09-11T21:00:37.545Z,95354.34
2023-09-11T21:04:27.665Z,95351.02
2023-09-11T21:08:17.499Z,95353.93
2023-09-11T21:12:06.858Z,95355.60
2023-09-11T21:15:27.725Z,95355.70
2023-09-11T21:19:17.570Z,95355.09
2023-09-11T21:22:31.847Z,95356.13
2023-09-11T21:26:04.235Z,95357.53
2023-09-11T21:29:43.702Z,95358.32
2023-09-11T21:32:44.393Z,95358.20
2023-09-11T21:36:07.817Z,95360.09
2023-09-11T21:39:47.432Z,95359.73
2023-09-11T21:43:37.232Z,95359.52
2023-09-11T21:47:06.800Z,95361.98
2023-09-11T21:50:36.302Z,95363.38
2023-09-11T21:54:14.892Z,95364.92
2023-09-11T21:58:00.122Z,95362.60
2023-09-11T22:01:31.607Z,95360.88
2023-09-11T22:05:11.013Z,95360.06
2023-09-11T22:08:39.034Z,95360.90
2023-09-11T22:12:20.300Z,95363.46
2023-09-11T22:15:48.816Z,95361.45
2023-09-11T22:19:38.274Z,95362.08
2023-09-11T22:23:27.892Z,95360.36
2023-09-11T22:26:19.596Z,95359.25
2023-09-11T22:29:40.044Z,95362.79
2023-09-11T22:33:08.033Z,95359.65
2023-09-11T22:36:57.545Z,95360.31
2023-09-11T22:40:22.591Z,95363.39
2023-09-11T22:43:52.018Z,95359.66
2023-09-11T22:47:31.515Z,95357.02
2023-09-11T22:51:19.850Z,95356.95
2023-09-11T22:54:37.928Z,95359.25
2023-09-11T22:58:12.940Z,95355.84
2023-09-11T23:01:48.759Z,95356.02
2023-09-11T23:04:46.352Z,95355.81
2023-09-11T23:08:06.725Z,95353.77
2023-09-11T23:11:14.415Z,95351.33
2023-09-11T23:14:26.703Z,95354.62
2023-09-11T23:17:56.215Z,95353.32
2023-09-11T23:21:37.228Z,95350.13
2023-09-11T23:25:18.129Z,95349.52
2023-09-11T23:28:11.900Z,95347.38
2023-09-11T23:31:38.169Z,95348.17
2023-09-11T23:34:10.140Z,95347.90
2023-09-11T23:37:41.449Z,95344.73
2023-09-11T23:40:50.698Z,95342.89
2023-09-11T23:43:31.358Z,95346.02
2023-09-11T23:46:23.456Z,95343.21
2023-09-11T23:49:25.197Z,95345.03
2023-09-11T23:53:08.679Z,95344.33
2023-09-11T23:56:58.075Z,95344.83
